createdAt,value
2022-12-04T00:02:44.279Z,102029.97
2022-12-04T00:07:49.249Z,102023.91
2022-12-04T00:12:52.833Z,102014.66
2022-12-04T00:17:56.259Z,102021.16
2022-12-04T00:23:01.130Z,102023.50
2022-12-04T00:28:04.673Z,102018.00
2022-12-04T00:33:08.005Z,102022.13
2022-12-04T00:38:12.770Z,102011.91
2022-12-04T00:43:16.334Z,102006.03
2022-12-04T00:48:20.009Z,102014.94
2022-12-04T00:53:25.071Z,102011.81
2022-12-04T00:58:28.509Z,102014.78
2022-12-04T01:03:32.131Z,102009.66
2022-12-04T01:08:36.994Z,102013.00
2022-12-04T01:13:40.171Z,102018.72
2022-12-04T01:18:43.596Z,102020.47
2022-12-04T01:23:48.833Z,102018.34
2022-12-04T01:28:52.324Z,102020.53
2022-12-04T01:33:55.659Z,102019.88
2022-12-04T01:39:00.635Z,102020.41
2022-12-04T01:44:12.250Z,102025.97
2022-12-04T01:49:20.449Z,102027.28
2022-12-04T01:54:29.776Z,102027.78
2022-12-04T01:59:37.298Z,102024.28
2022-12-04T02:04:42.819Z,102034.41
2022-12-04T02:09:56.555Z,102029.63
2022-12-04T02:15:08.010Z,102025.97
2022-12-04T02:20:25.239Z,102023.84
2022-12-04T02:25:40.716Z,102022.25
2022-12-04T02:30:46.887Z,102027.56
2022-12-04T02:35:56.371Z,102051.56
2022-12-04T02:41:03.456Z,102034.59
2022-12-04T02:46:11.791Z,102045.13
2022-12-04T02:51:17.567Z,102059.34
2022-12-04T02:56:26.395Z,102051.78
2022-12-04T03:01:35.655Z,102040.13
2022-12-04T03:06:43.882Z,102053.41
2022-12-04T03:11:51.846Z,102050.41
2022-12-04T03:17:00.716Z,102056.34
2022-12-04T03:22:08.191Z,102043.19
2022-12-04T03:27:16.242Z,102062.97
2022-12-04T03:32:28.147Z,102064.13
2022-12-04T03:37:39.079Z,102058.53
2022-12-04T03:42:47.426Z,102041.97
2022-12-04T03:47:58.512Z,102060.53
2022-12-04T03:53:06.827Z,102069.72
2022-12-04T03:58:17.678Z,102059.09
2022-12-04T04:03:26.377Z,102073.16
2022-12-04T04:08:35.920Z,102083.97
2022-12-04T04:14:01.882Z,102077.16
2022-12-04T04:19:25.772Z,102080.38
2022-12-04T04:24:34.890Z,102093.31
2022-12-04T04:29:39.311Z,102089.00
2022-12-04T04:34:48.926Z,102098.00
2022-12-04T04:39:58.349Z,102094.75
2022-12-04T04:45:06.813Z,102094.75
2022-12-04T04:50:13.637Z,102111.28
2022-12-04T04:55:19.332Z,102098.34
2022-12-04T05:00:24.249Z,102102.81
2022-12-04T05:05:29.170Z,102100.13
2022-12-04T05:10:32.660Z,102097.59
2022-12-04T05:15:36.134Z,102102.28
2022-12-04T05:20:42.031Z,102108.44
2022-12-04T05:25:45.480Z,102097.44
2022-12-04T05:30:56.796Z,102107.69
2022-12-04T05:36:02.658Z,102111.69
2022-12-04T05:41:07.391Z,102111.66
2022-12-04T05:46:11.742Z,102114.53
2022-12-04T05:51:16.210Z,102115.47
2022-12-04T05:56:19.666Z,102115.66
2022-12-04T06:01:25.204Z,102121.75
2022-12-04T06:06:30.177Z,102121.06
2022-12-04T06:11:35.790Z,102121.59
2022-12-04T06:16:41.261Z,102072.09
2022-12-04T06:21:49.107Z,102122.16
2022-12-04T06:27:27.215Z,102126.47
2022-12-04T06:32:22.041Z,102120.16
2022-12-04T06:37:27.357Z,102125.75
2022-12-04T06:42:30.791Z,102128.00
2022-12-04T06:47:36.236Z,102116.16
2022-12-04T06:52:40.987Z,102124.03
2022-12-04T06:57:44.047Z,102117.66
2022-12-04T07:02:47.399Z,102126.16
2022-12-04T07:07:52.239Z,102121.81
2022-12-04T07:12:55.312Z,102122.72
2022-12-04T07:17:58.651Z,102137.41
2022-12-04T07:23:07.224Z,102143.31
2022-12-04T07:28:12.583Z,102149.13
2022-12-04T07:33:15.937Z,102144.13
2022-12-04T07:38:20.662Z,102145.81
2022-12-04T07:43:23.849Z,102142.91
2022-12-04T07:48:32.992Z,102152.00
2022-12-04T07:53:38.554Z,102140.13
2022-12-04T07:58:42.786Z,102148.19
2022-12-04T08:03:48.909Z,102127.25
2022-12-04T08:08:54.584Z,102137.78
2022-12-04T08:13:59.205Z,102143.59
2022-12-04T08:19:03.362Z,102139.88
2022-12-04T08:24:08.411Z,102124.50
2022-12-04T08:29:12.267Z,102136.94
2022-12-04T08:34:15.731Z,102146.03
2022-12-04T08:39:20.623Z,102149.22
2022-12-04T08:44:24.156Z,102144.66
2022-12-04T08:49:27.498Z,102147.38
2022-12-04T08:54:36.065Z,102136.03
2022-12-04T08:59:39.973Z,102133.66
2022-12-04T09:04:43.552Z,102142.66
2022-12-04T09:09:48.677Z,102143.84
2022-12-04T09:14:52.218Z,102150.50
2022-12-04T09:20:00.667Z,102137.63
2022-12-04T09:25:06.781Z,102131.31
2022-12-04T09:30:12.205Z,102144.13
2022-12-04T09:35:17.493Z,102144.88
2022-12-04T09:40:35.155Z,102146.19
2022-12-04T09:45:47.565Z,102143.84
2022-12-04T09:50:52.504Z,102142.22
2022-12-04T09:56:03.758Z,102143.84
2022-12-04T10:01:07.393Z,102146.59
2022-12-04T10:06:14.998Z,102144.38
2022-12-04T10:11:32.568Z,102141.13
2022-12-04T10:16:49.043Z,102120.69
2022-12-04T10:22:04.866Z,102122.34
2022-12-04T10:27:16.125Z,102117.53
2022-12-04T10:32:23.464Z,102119.91
2022-12-04T10:37:28.972Z,102115.06
2022-12-04T10:42:40.564Z,102114.16
2022-12-04T10:47:47.420Z,102075.00
2022-12-04T10:52:51.538Z,102100.88
2022-12-04T10:57:56.434Z,102108.31
2022-12-04T11:03:02.925Z,102119.66
2022-12-04T11:08:08.092Z,102106.22
2022-12-04T11:13:18.843Z,102101.59
2022-12-04T11:18:23.886Z,102111.09
2022-12-04T11:23:28.176Z,102093.53
2022-12-04T11:28:41.569Z,102104.28
2022-12-04T11:33:49.081Z,102102.91
2022-12-04T11:38:55.581Z,102098.03
2022-12-04T11:44:01.262Z,102082.59
2022-12-04T11:49:04.614Z,102096.63
2022-12-04T11:54:18.194Z,102092.72
2022-12-04T11:59:43.027Z,102080.22
2022-12-04T12:05:09.720Z,102087.47
2022-12-04T12:10:19.429Z,102086.06
2022-12-04T12:15:31.689Z,102090.47
2022-12-04T12:20:42.863Z,102082.66
2022-12-04T12:25:56.958Z,102086.97
2022-12-04T12:31:14.082Z,102076.34
2022-12-04T12:36:17.629Z,102084.81
2022-12-04T12:41:25.110Z,102096.56
2022-12-04T12:46:35.122Z,102083.56
2022-12-04T12:51:43.758Z,102102.34
2022-12-04T12:56:52.703Z,102101.44
2022-12-04T13:02:01.610Z,102100.44
2022-12-04T13:07:21.478Z,102102.97
2022-12-04T13:12:26.067Z,102107.81
2022-12-04T13:17:35.146Z,102113.13
2022-12-04T13:22:51.057Z,102110.81
2022-12-04T13:28:05.675Z,102111.88
2022-12-04T13:33:41.420Z,102115.50
2022-12-04T13:39:00.335Z,102106.34
2022-12-04T13:44:07.178Z,102102.69
2022-12-04T13:49:27.203Z,102108.91
2022-12-04T13:54:32.573Z,102109.78
2022-12-04T13:59:38.633Z,102093.06
2022-12-04T14:04:53.784Z,102098.47
2022-12-04T14:09:59.092Z,102099.34
2022-12-04T14:15:04.936Z,102099.19
2022-12-04T14:20:25.231Z,102096.31
2022-12-04T14:25:36.987Z,102094.66
2022-12-04T14:30:41.919Z,102089.88
2022-12-04T14:35:52.611Z,102093.25
2022-12-04T14:40:58.567Z,102085.34
2022-12-04T14:46:08.642Z,102088.94
2022-12-04T14:51:19.030Z,102093.97
2022-12-04T14:56:33.298Z,102097.25
2022-12-04T15:01:39.309Z,102094.03
2022-12-04T15:06:48.758Z,102097.38
2022-12-04T15:12:12.149Z,102077.63
2022-12-04T15:17:17.160Z,102080.34
2022-12-04T15:22:25.002Z,102085.56
2022-12-04T15:27:32.760Z,102089.19
2022-12-04T15:32:36.627Z,102086.28
2022-12-04T15:37:42.566Z,102084.53
2022-12-04T15:42:45.986Z,102079.50
2022-12-04T15:47:53.936Z,102081.63
2022-12-04T15:53:04.091Z,102074.06
2022-12-04T15:58:19.306Z,102075.69
2022-12-04T16:03:28.129Z,102083.09
2022-12-04T16:08:36.325Z,102088.31
2022-12-04T16:13:40.711Z,102089.59
2022-12-04T16:18:45.246Z,102087.28
2022-12-04T16:23:50.461Z,102095.59
2022-12-04T16:28:53.906Z,102077.34
2022-12-04T16:33:57.436Z,102079.53
2022-12-04T16:39:02.206Z,102083.41
2022-12-04T16:44:13.467Z,102072.41
2022-12-04T16:49:19.562Z,102081.06
2022-12-04T16:54:24.471Z,102076.94
2022-12-04T16:59:27.825Z,102072.59
2022-12-04T17:04:31.395Z,102083.22
2022-12-04T17:09:36.195Z,102081.63
2022-12-04T17:14:41.062Z,102071.53
2022-12-04T17:19:44.491Z,102054.81
2022-12-04T17:24:55.758Z,102060.91
2022-12-04T17:30:00.993Z,102062.91
2022-12-04T17:35:06.388Z,102058.22
2022-12-04T17:40:14.567Z,102054.81
2022-12-04T17:45:18.520Z,102065.59
2022-12-04T17:50:21.929Z,102063.81
2022-12-04T17:55:26.775Z,102057.16
2022-12-04T18:00:30.671Z,102040.56
2022-12-04T18:05:34.011Z,102064.34
2022-12-04T18:10:38.954Z,102057.84
2022-12-04T18:15:42.574Z,102052.28
2022-12-04T18:20:46.114Z,102054.25
2022-12-04T18:25:57.544Z,102051.91
2022-12-04T18:31:04.087Z,102057.31
2022-12-04T18:36:09.686Z,102054.78
2022-12-04T18:41:16.078Z,102046.13
2022-12-04T18:46:20.197Z,102045.78
2022-12-04T18:51:25.283Z,102018.59
2022-12-04T18:56:30.581Z,102033.00
2022-12-04T19:01:35.733Z,102042.16
2022-12-04T19:06:42.119Z,102036.41
2022-12-04T19:11:47.748Z,102019.28
2022-12-04T19:16:51.922Z,102030.47
2022-12-04T19:21:56.797Z,102035.66
2022-12-04T19:27:02.107Z,102027.16
2022-12-04T19:32:05.906Z,102024.66
2022-12-04T19:37:09.244Z,102029.69
2022-12-04T19:42:14.126Z,102032.78
2022-12-04T19:47:17.752Z,102025.91
2022-12-04T19:52:21.905Z,102025.38
2022-12-04T19:57:26.790Z,102024.84
2022-12-04T20:02:30.363Z,102014.91
2022-12-04T20:07:34.047Z,102017.44
2022-12-04T20:12:38.918Z,102020.06
2022-12-04T20:17:42.541Z,102027.44
2022-12-04T20:22:48.355Z,102037.31
2022-12-04T20:27:53.431Z,102011.41
2022-12-04T20:32:56.915Z,102029.56
2022-12-04T20:38:00.358Z,102017.53
2022-12-04T20:43:05.382Z,102017.69
2022-12-04T20:48:08.854Z,102024.66
2022-12-04T20:53:12.279Z,102012.78
2022-12-04T20:58:17.238Z,102020.56
2022-12-04T21:03:20.515Z,102021.22
2022-12-04T21:08:37.730Z,102019.41
2022-12-04T21:13:59.933Z,102018.19
2022-12-04T21:19:03.447Z,102013.09
2022-12-04T21:24:08.471Z,102004.50
2022-12-04T21:29:13.330Z,101996.72
2022-12-04T21:34:18.149Z,101992.34
2022-12-04T21:44:46.837Z,101981.59
2022-12-04T21:49:50.381Z,101986.13
2022-12-04T21:54:54.550Z,101978.00
2022-12-04T21:59:59.495Z,101976.03
2022-12-04T22:05:03.040Z,101966.84
2022-12-04T22:10:10.859Z,101962.00
2022-12-04T22:15:16.043Z,101953.53
2022-12-04T22:20:19.789Z,101951.53
2022-12-04T22:25:23.264Z,101955.72
2022-12-04T22:30:28.567Z,101952.66
2022-12-04T22:35:33.684Z,101940.47
2022-12-04T22:40:38.867Z,101935.63
2022-12-04T22:45:43.630Z,101924.41
2022-12-04T22:50:47.107Z,101931.66
2022-12-04T22:55:50.512Z,101921.59
2022-12-04T23:00:55.330Z,101923.59
2022-12-04T23:11:16.514Z,101915.03
2022-12-04T23:16:20.548Z,101917.91
2022-12-04T23:21:24.607Z,101914.63
2022-12-04T23:26:32.435Z,101920.69
2022-12-04T23:31:35.844Z,101917.25
2022-12-04T23:36:39.278Z,101891.38
2022-12-04T23:41:44.104Z,101912.81
2022-12-04T23:46:47.403Z,101911.72
2022-12-04T23:51:50.887Z,101918.66
2022-12-04T23:56:56.528Z,101914.31
